sensor_id;sensor_type;location;lat;lon;timestamp;P1;durP1;ratioP1;P2;durP2;ratioP2
53971;SDS011;40530;53.062;6.078;2022-10-23T00:00:02;22.75;;;9.77;;
53971;SDS011;40530;53.062;6.078;2022-10-23T00:02:28;25.42;;;10.40;;
53971;SDS011;40530;53.062;6.078;2022-10-23T00:04:54;19.52;;;10.05;;
53971;SDS011;40530;53.062;6.078;2022-10-23T00:07:20;19.73;;;9.55;;
53971;SDS011;40530;53.062;6.078;2022-10-23T00:09:46;22.10;;;9.73;;
53971;SDS011;40530;53.062;6.078;2022-10-23T00:12:12;22.20;;;9.48;;
53971;SDS011;40530;53.062;6.078;2022-10-23T00:14:38;30.75;;;11.30;;
53971;SDS011;40530;53.062;6.078;2022-10-23T00:17:04;28.65;;;10.82;;
53971;SDS011;40530;53.062;6.078;2022-10-23T00:19:30;23.98;;;10.60;;
53971;SDS011;40530;53.062;6.078;2022-10-23T00:21:57;22.77;;;10.55;;
53971;SDS011;40530;53.062;6.078;2022-10-23T00:24:23;27.48;;;10.88;;
53971;SDS011;40530;53.062;6.078;2022-10-23T00:26:49;24.05;;;10.82;;
53971;SDS011;40530;53.062;6.078;2022-10-23T00:29:15;32.28;;;11.43;;
53971;SDS011;40530;53.062;6.078;2022-10-23T00:31:41;22.67;;;10.77;;
53971;SDS011;40530;53.062;6.078;2022-10-23T00:34:07;26.55;;;12.13;;
53971;SDS011;40530;53.062;6.078;2022-10-23T00:36:33;26.45;;;12.20;;
53971;SDS011;40530;53.062;6.078;2022-10-23T00:38:59;30.90;;;13.27;;
53971;SDS011;40530;53.062;6.078;2022-10-23T00:41:26;29.35;;;10.45;;
53971;SDS011;40530;53.062;6.078;2022-10-23T00:43:58;30.85;;;10.88;;
53971;SDS011;40530;53.062;6.078;2022-10-23T00:46:24;26.48;;;12.77;;
53971;SDS011;40530;53.062;6.078;2022-10-23T00:48:51;22.38;;;10.93;;
53971;SDS011;40530;53.062;6.078;2022-10-23T00:51:17;27.08;;;12.82;;
53971;SDS011;40530;53.062;6.078;2022-10-23T00:53:43;31.08;;;12.73;;
53971;SDS011;40530;53.062;6.078;2022-10-23T00:56:10;27.65;;;14.25;;
53971;SDS011;40530;53.062;6.078;2022-10-23T00:58:36;21.70;;;13.20;;
53971;SDS011;40530;53.062;6.078;2022-10-23T01:01:13;25.88;;;13.60;;
53971;SDS011;40530;53.062;6.078;2022-10-23T01:03:40;32.80;;;14.68;;
53971;SDS011;40530;53.062;6.078;2022-10-23T01:08:46;28.92;;;12.80;;
53971;SDS011;40530;53.062;6.078;2022-10-23T01:11:23;33.78;;;13.85;;
53971;SDS011;40530;53.062;6.078;2022-10-23T01:16:17;26.83;;;12.73;;
53971;SDS011;40530;53.062;6.078;2022-10-23T01:18:56;27.60;;;12.65;;
53971;SDS011;40530;53.062;6.078;2022-10-23T01:21:31;29.77;;;12.18;;
53971;SDS011;40530;53.062;6.078;2022-10-23T01:24:02;23.10;;;12.15;;
53971;SDS011;40530;53.062;6.078;2022-10-23T01:26:39;29.02;;;12.98;;
53971;SDS011;40530;53.062;6.078;2022-10-23T01:29:17;25.10;;;12.77;;
53971;SDS011;40530;53.062;6.078;2022-10-23T01:31:49;23.33;;;13.20;;
53971;SDS011;40530;53.062;6.078;2022-10-23T01:34:23;31.20;;;13.50;;
53971;SDS011;40530;53.062;6.078;2022-10-23T01:36:52;33.35;;;12.93;;
53971;SDS011;40530;53.062;6.078;2022-10-23T01:39:21;27.52;;;13.23;;
53971;SDS011;40530;53.062;6.078;2022-10-23T01:41:55;25.90;;;13.95;;
53971;SDS011;40530;53.062;6.078;2022-10-23T01:44:24;21.23;;;12.60;;
53971;SDS011;40530;53.062;6.078;2022-10-23T01:46:52;23.85;;;13.15;;
53971;SDS011;40530;53.062;6.078;2022-10-23T01:49:20;24.85;;;13.50;;
53971;SDS011;40530;53.062;6.078;2022-10-23T01:51:48;23.77;;;12.98;;
53971;SDS011;40530;53.062;6.078;2022-10-23T01:54:15;27.75;;;13.98;;
53971;SDS011;40530;53.062;6.078;2022-10-23T01:56:43;24.10;;;13.88;;
53971;SDS011;40530;53.062;6.078;2022-10-23T01:59:15;21.95;;;12.27;;
53971;SDS011;40530;53.062;6.078;2022-10-23T02:01:42;28.95;;;13.95;;
53971;SDS011;40530;53.062;6.078;2022-10-23T02:04:11;23.38;;;12.45;;
53971;SDS011;40530;53.062;6.078;2022-10-23T02:06:38;28.88;;;14.18;;
53971;SDS011;40530;53.062;6.078;2022-10-23T02:09:04;28.25;;;13.25;;
53971;SDS011;40530;53.062;6.078;2022-10-23T02:11:31;23.00;;;13.05;;
53971;SDS011;40530;53.062;6.078;2022-10-23T02:22:19;19.52;;;12.75;;
53971;SDS011;40530;53.062;6.078;2022-10-23T02:24:30;19.70;;;11.65;;
53971;SDS011;40530;53.062;6.078;2022-10-23T02:27:00;20.48;;;12.05;;
53971;SDS011;40530;53.062;6.078;2022-10-23T02:31:53;22.67;;;11.90;;
53971;SDS011;40530;53.062;6.078;2022-10-23T02:34:19;24.73;;;13.05;;
53971;SDS011;40530;53.062;6.078;2022-10-23T02:36:45;28.20;;;13.30;;
53971;SDS011;40530;53.062;6.078;2022-10-23T02:39:11;20.75;;;12.18;;
53971;SDS011;40530;53.062;6.078;2022-10-23T02:46:49;28.58;;;13.40;;
53971;SDS011;40530;53.062;6.078;2022-10-23T02:49:19;27.00;;;12.82;;
53971;SDS011;40530;53.062;6.078;2022-10-23T02:54:19;23.95;;;13.50;;
53971;SDS011;40530;53.062;6.078;2022-10-23T02:56:51;22.58;;;11.88;;
53971;SDS011;40530;53.062;6.078;2022-10-23T02:59:22;26.77;;;13.13;;
53971;SDS011;40530;53.062;6.078;2022-10-23T03:01:52;20.48;;;12.57;;
53971;SDS011;40530;53.062;6.078;2022-10-23T03:04:20;17.63;;;12.07;;
53971;SDS011;40530;53.062;6.078;2022-10-23T03:06:48;26.65;;;12.93;;
53971;SDS011;40530;53.062;6.078;2022-10-23T03:09:15;28.98;;;13.70;;
53971;SDS011;40530;53.062;6.078;2022-10-23T03:11:41;18.17;;;12.90;;
53971;SDS011;40530;53.062;6.078;2022-10-23T03:14:07;23.48;;;12.48;;
53971;SDS011;40530;53.062;6.078;2022-10-23T03:16:33;18.85;;;11.90;;
53971;SDS011;40530;53.062;6.078;2022-10-23T03:18:59;28.23;;;15.35;;
53971;SDS011;40530;53.062;6.078;2022-10-23T03:21:25;26.10;;;14.15;;
53971;SDS011;40530;53.062;6.078;2022-10-23T03:23:51;26.73;;;13.30;;
53971;SDS011;40530;53.062;6.078;2022-10-23T03:26:17;18.20;;;13.45;;
53971;SDS011;40530;53.062;6.078;2022-10-23T03:28:43;23.85;;;14.00;;
53971;SDS011;40530;53.062;6.078;2022-10-23T03:31:09;35.28;;;15.10;;
53971;SDS011;40530;53.062;6.078;2022-10-23T03:33:35;28.55;;;15.77;;
53971;SDS011;40530;53.062;6.078;2022-10-23T03:36:01;27.75;;;14.07;;
53971;SDS011;40530;53.062;6.078;2022-10-23T03:38:27;30.42;;;15.40;;
53971;SDS011;40530;53.062;6.078;2022-10-23T03:40:54;26.50;;;15.65;;
53971;SDS011;40530;53.062;6.078;2022-10-23T03:43:20;23.70;;;15.77;;
53971;SDS011;40530;53.062;6.078;2022-10-23T03:45:46;32.85;;;16.08;;
53971;SDS011;40530;53.062;6.078;2022-10-23T03:48:12;24.65;;;15.07;;
53971;SDS011;40530;53.062;6.078;2022-10-23T03:50:38;33.10;;;16.27;;
53971;SDS011;40530;53.062;6.078;2022-10-23T03:53:04;27.05;;;16.20;;
53971;SDS011;40530;53.062;6.078;2022-10-23T03:55:30;21.70;;;14.25;;
53971;SDS011;40530;53.062;6.078;2022-10-23T03:57:56;25.17;;;15.25;;
53971;SDS011;40530;53.062;6.078;2022-10-23T04:00:22;24.88;;;15.02;;
53971;SDS011;40530;53.062;6.078;2022-10-23T04:02:48;21.85;;;15.05;;
53971;SDS011;40530;53.062;6.078;2022-10-23T04:05:15;28.52;;;14.60;;
53971;SDS011;40530;53.062;6.078;2022-10-23T04:07:41;19.95;;;13.90;;
53971;SDS011;40530;53.062;6.078;2022-10-23T04:10:07;24.45;;;14.57;;
53971;SDS011;40530;53.062;6.078;2022-10-23T04:12:33;27.83;;;16.30;;
53971;SDS011;40530;53.062;6.078;2022-10-23T04:14:59;27.83;;;16.05;;
53971;SDS011;40530;53.062;6.078;2022-10-23T04:17:25;24.23;;;15.30;;
53971;SDS011;40530;53.062;6.078;2022-10-23T04:19:51;31.35;;;16.90;;
53971;SDS011;40530;53.062;6.078;2022-10-23T04:22:17;23.38;;;15.63;;
53971;SDS011;40530;53.062;6.078;2022-10-23T04:24:43;24.83;;;16.08;;
53971;SDS011;40530;53.062;6.078;2022-10-23T04:27:12;25.65;;;16.40;;
53971;SDS011;40530;53.062;6.078;2022-10-23T04:29:38;28.10;;;16.13;;
53971;SDS011;40530;53.062;6.078;2022-10-23T04:32:05;26.77;;;16.55;;
53971;SDS011;40530;53.062;6.078;2022-10-23T04:34:32;29.55;;;17.42;;
53971;SDS011;40530;53.062;6.078;2022-10-23T04:36:58;28.42;;;15.45;;
53971;SDS011;40530;53.062;6.078;2022-10-23T04:39:24;26.02;;;16.23;;
53971;SDS011;40530;53.062;6.078;2022-10-23T04:41:50;27.90;;;17.40;;
53971;SDS011;40530;53.062;6.078;2022-10-23T04:44:16;29.90;;;16.33;;
53971;SDS011;40530;53.062;6.078;2022-10-23T04:46:42;24.73;;;16.98;;
53971;SDS011;40530;53.062;6.078;2022-10-23T04:49:08;32.03;;;18.58;;
53971;SDS011;40530;53.062;6.078;2022-10-23T04:51:34;36.47;;;18.05;;
53971;SDS011;40530;53.062;6.078;2022-10-23T04:54:00;32.92;;;18.55;;
53971;SDS011;40530;53.062;6.078;2022-10-23T04:56:26;25.60;;;17.13;;
53971;SDS011;40530;53.062;6.078;2022-10-23T04:58:52;31.27;;;18.27;;
53971;SDS011;40530;53.062;6.078;2022-10-23T05:01:18;27.08;;;17.33;;
53971;SDS011;40530;53.062;6.078;2022-10-23T05:03:44;32.53;;;17.17;;
53971;SDS011;40530;53.062;6.078;2022-10-23T05:06:11;33.40;;;18.23;;
53971;SDS011;40530;53.062;6.078;2022-10-23T05:08:37;30.38;;;17.20;;
53971;SDS011;40530;53.062;6.078;2022-10-23T05:11:03;32.33;;;18.40;;
53971;SDS011;40530;53.062;6.078;2022-10-23T05:13:29;34.85;;;19.27;;
53971;SDS011;40530;53.062;6.078;2022-10-23T05:15:56;29.10;;;17.98;;
53971;SDS011;40530;53.062;6.078;2022-10-23T05:18:37;24.90;;;17.67;;
53971;SDS011;40530;53.062;6.078;2022-10-23T05:21:06;43.08;;;20.35;;
53971;SDS011;40530;53.062;6.078;2022-10-23T05:23:33;42.63;;;20.00;;
53971;SDS011;40530;53.062;6.078;2022-10-23T05:26:01;31.63;;;18.92;;
53971;SDS011;40530;53.062;6.078;2022-10-23T05:28:28;32.25;;;18.75;;
53971;SDS011;40530;53.062;6.078;2022-10-23T05:30:54;27.67;;;18.65;;
53971;SDS011;40530;53.062;6.078;2022-10-23T05:33:24;40.17;;;19.10;;
53971;SDS011;40530;53.062;6.078;2022-10-23T05:35:50;29.33;;;19.38;;
53971;SDS011;40530;53.062;6.078;2022-10-23T05:38:16;34.10;;;22.23;;
53971;SDS011;40530;53.062;6.078;2022-10-23T05:40:42;29.38;;;18.17;;
53971;SDS011;40530;53.062;6.078;2022-10-23T05:43:09;36.08;;;19.08;;
53971;SDS011;40530;53.062;6.078;2022-10-23T05:45:35;39.97;;;20.25;;
53971;SDS011;40530;53.062;6.078;2022-10-23T05:48:01;36.63;;;20.40;;
53971;SDS011;40530;53.062;6.078;2022-10-23T05:50:27;37.35;;;20.15;;
53971;SDS011;40530;53.062;6.078;2022-10-23T05:52:53;42.67;;;21.77;;
53971;SDS011;40530;53.062;6.078;2022-10-23T05:55:19;36.00;;;21.40;;
53971;SDS011;40530;53.062;6.078;2022-10-23T05:57:45;40.05;;;20.50;;
53971;SDS011;40530;53.062;6.078;2022-10-23T06:00:11;37.72;;;20.63;;
53971;SDS011;40530;53.062;6.078;2022-10-23T06:02:38;36.38;;;21.38;;
53971;SDS011;40530;53.062;6.078;2022-10-23T06:05:04;34.70;;;20.85;;
53971;SDS011;40530;53.062;6.078;2022-10-23T06:07:30;41.97;;;21.23;;
53971;SDS011;40530;53.062;6.078;2022-10-23T06:09:57;42.15;;;21.73;;
53971;SDS011;40530;53.062;6.078;2022-10-23T06:12:24;29.65;;;18.20;;
53971;SDS011;40530;53.062;6.078;2022-10-23T06:14:50;50.80;;;27.45;;
53971;SDS011;40530;53.062;6.078;2022-10-23T06:17:16;61.97;;;29.05;;
53971;SDS011;40530;53.062;6.078;2022-10-23T06:19:45;49.25;;;26.20;;
53971;SDS011;40530;53.062;6.078;2022-10-23T06:22:11;50.42;;;29.48;;
53971;SDS011;40530;53.062;6.078;2022-10-23T06:24:37;36.08;;;19.65;;
53971;SDS011;40530;53.062;6.078;2022-10-23T06:27:03;43.15;;;21.52;;
53971;SDS011;40530;53.062;6.078;2022-10-23T06:29:29;36.78;;;21.25;;
53971;SDS011;40530;53.062;6.078;2022-10-23T06:31:55;39.67;;;20.88;;
53971;SDS011;40530;53.062;6.078;2022-10-23T06:34:21;40.65;;;21.15;;
53971;SDS011;40530;53.062;6.078;2022-10-23T06:36:47;41.47;;;21.90;;
53971;SDS011;40530;53.062;6.078;2022-10-23T06:39:13;47.35;;;21.55;;
53971;SDS011;40530;53.062;6.078;2022-10-23T06:41:39;39.75;;;22.80;;
53971;SDS011;40530;53.062;6.078;2022-10-23T06:44:06;43.75;;;20.75;;
53971;SDS011;40530;53.062;6.078;2022-10-23T06:46:34;46.45;;;21.90;;
53971;SDS011;40530;53.062;6.078;2022-10-23T06:49:00;45.28;;;22.58;;
53971;SDS011;40530;53.062;6.078;2022-10-23T06:51:26;70.57;;;36.75;;
53971;SDS011;40530;53.062;6.078;2022-10-23T06:53:54;184.38;;;102.22;;
53971;SDS011;40530;53.062;6.078;2022-10-23T06:56:20;48.17;;;25.20;;
53971;SDS011;40530;53.062;6.078;2022-10-23T06:58:46;38.03;;;22.85;;
53971;SDS011;40530;53.062;6.078;2022-10-23T07:01:13;51.45;;;21.60;;
53971;SDS011;40530;53.062;6.078;2022-10-23T07:03:40;39.03;;;20.90;;
53971;SDS011;40530;53.062;6.078;2022-10-23T07:06:07;43.55;;;21.70;;
53971;SDS011;40530;53.062;6.078;2022-10-23T07:08:33;50.28;;;20.45;;
53971;SDS011;40530;53.062;6.078;2022-10-23T07:11:03;50.60;;;21.40;;
53971;SDS011;40530;53.062;6.078;2022-10-23T07:13:30;42.45;;;21.63;;
53971;SDS011;40530;53.062;6.078;2022-10-23T07:15:56;36.22;;;20.25;;
53971;SDS011;40530;53.062;6.078;2022-10-23T07:18:22;42.13;;;20.25;;
53971;SDS011;40530;53.062;6.078;2022-10-23T07:20:48;32.40;;;19.40;;
53971;SDS011;40530;53.062;6.078;2022-10-23T07:23:23;34.70;;;20.02;;
53971;SDS011;40530;53.062;6.078;2022-10-23T07:25:49;42.85;;;18.98;;
53971;SDS011;40530;53.062;6.078;2022-10-23T07:28:15;33.75;;;19.83;;
53971;SDS011;40530;53.062;6.078;2022-10-23T07:30:41;38.25;;;20.67;;
53971;SDS011;40530;53.062;6.078;2022-10-23T07:33:07;40.83;;;20.10;;
53971;SDS011;40530;53.062;6.078;2022-10-23T07:35:37;39.25;;;21.00;;
53971;SDS011;40530;53.062;6.078;2022-10-23T07:38:03;33.97;;;19.52;;
53971;SDS011;40530;53.062;6.078;2022-10-23T07:40:29;33.47;;;19.58;;
53971;SDS011;40530;53.062;6.078;2022-10-23T07:42:55;32.13;;;19.45;;
53971;SDS011;40530;53.062;6.078;2022-10-23T07:45:21;37.83;;;19.25;;
53971;SDS011;40530;53.062;6.078;2022-10-23T07:47:50;44.58;;;25.25;;
53971;SDS011;40530;53.062;6.078;2022-10-23T07:50:17;43.78;;;26.15;;
53971;SDS011;40530;53.062;6.078;2022-10-23T07:52:43;54.30;;;32.97;;
53971;SDS011;40530;53.062;6.078;2022-10-23T07:55:09;43.72;;;20.42;;
53971;SDS011;40530;53.062;6.078;2022-10-23T07:57:36;40.65;;;22.80;;
53971;SDS011;40530;53.062;6.078;2022-10-23T08:00:03;31.58;;;19.67;;
53971;SDS011;40530;53.062;6.078;2022-10-23T08:02:30;27.45;;;17.90;;
53971;SDS011;40530;53.062;6.078;2022-10-23T08:04:56;35.78;;;19.10;;
53971;SDS011;40530;53.062;6.078;2022-10-23T08:07:22;31.80;;;18.90;;
53971;SDS011;40530;53.062;6.078;2022-10-23T08:09:48;32.10;;;18.75;;
53971;SDS011;40530;53.062;6.078;2022-10-23T08:12:14;39.88;;;18.85;;
53971;SDS011;40530;53.062;6.078;2022-10-23T08:14:40;37.80;;;18.60;;
53971;SDS011;40530;53.062;6.078;2022-10-23T08:17:06;30.98;;;17.83;;
53971;SDS011;40530;53.062;6.078;2022-10-23T08:19:34;36.60;;;17.80;;
53971;SDS011;40530;53.062;6.078;2022-10-23T08:22:00;36.95;;;23.90;;
53971;SDS011;40530;53.062;6.078;2022-10-23T08:24:26;49.38;;;31.00;;
53971;SDS011;40530;53.062;6.078;2022-10-23T08:26:52;35.83;;;20.85;;
53971;SDS011;40530;53.062;6.078;2022-10-23T08:29:18;30.48;;;17.75;;
53971;SDS011;40530;53.062;6.078;2022-10-23T08:31:44;24.45;;;16.83;;
53971;SDS011;40530;53.062;6.078;2022-10-23T08:34:11;32.40;;;17.60;;
53971;SDS011;40530;53.062;6.078;2022-10-23T08:36:37;29.23;;;15.57;;
53971;SDS011;40530;53.062;6.078;2022-10-23T08:39:03;32.88;;;18.13;;
53971;SDS011;40530;53.062;6.078;2022-10-23T08:41:36;33.00;;;19.05;;
53971;SDS011;40530;53.062;6.078;2022-10-23T08:44:23;26.58;;;18.52;;
53971;SDS011;40530;53.062;6.078;2022-10-23T08:49:29;25.35;;;15.25;;
53971;SDS011;40530;53.062;6.078;2022-10-23T08:51:59;30.17;;;16.77;;
53971;SDS011;40530;53.062;6.078;2022-10-23T08:57:14;24.30;;;15.38;;
53971;SDS011;40530;53.062;6.078;2022-10-23T08:59:48;31.77;;;14.45;;
53971;SDS011;40530;53.062;6.078;2022-10-23T09:02:16;25.83;;;15.02;;
53971;SDS011;40530;53.062;6.078;2022-10-23T09:04:46;29.35;;;17.02;;
53971;SDS011;40530;53.062;6.078;2022-10-23T09:12:15;28.98;;;13.63;;
53971;SDS011;40530;53.062;6.078;2022-10-23T09:17:30;17.58;;;12.40;;
53971;SDS011;40530;53.062;6.078;2022-10-23T09:20:00;19.95;;;11.07;;
53971;SDS011;40530;53.062;6.078;2022-10-23T09:22:30;20.15;;;11.63;;
53971;SDS011;40530;53.062;6.078;2022-10-23T09:24:56;20.77;;;11.88;;
53971;SDS011;40530;53.062;6.078;2022-10-23T09:27:22;19.30;;;11.68;;
53971;SDS011;40530;53.062;6.078;2022-10-23T09:29:49;21.02;;;11.05;;
53971;SDS011;40530;53.062;6.078;2022-10-23T09:32:16;20.30;;;11.20;;
53971;SDS011;40530;53.062;6.078;2022-10-23T09:34:52;21.13;;;10.05;;
53971;SDS011;40530;53.062;6.078;2022-10-23T09:37:32;19.38;;;10.20;;
53971;SDS011;40530;53.062;6.078;2022-10-23T09:45:00;15.38;;;9.10;;
53971;SDS011;40530;53.062;6.078;2022-10-23T09:47:26;16.08;;;8.43;;
53971;SDS011;40530;53.062;6.078;2022-10-23T09:49:53;18.60;;;10.60;;
53971;SDS011;40530;53.062;6.078;2022-10-23T09:52:24;16.88;;;10.05;;
53971;SDS011;40530;53.062;6.078;2022-10-23T09:54:54;17.35;;;9.77;;
53971;SDS011;40530;53.062;6.078;2022-10-23T10:00:44;15.95;;;8.32;;
53971;SDS011;40530;53.062;6.078;2022-10-23T10:02:43;14.85;;;7.50;;
53971;SDS011;40530;53.062;6.078;2022-10-23T10:08:12;11.60;;;7.55;;
53971;SDS011;40530;53.062;6.078;2022-10-23T10:10:50;94.47;;;64.45;;
53971;SDS011;40530;53.062;6.078;2022-10-23T10:13:32;34.17;;;20.98;;
53971;SDS011;40530;53.062;6.078;2022-10-23T10:18:46;16.73;;;6.90;;
53971;SDS011;40530;53.062;6.078;2022-10-23T10:21:51;9.73;;;5.90;;
53971;SDS011;40530;53.062;6.078;2022-10-23T10:24:11;11.82;;;5.85;;
53971;SDS011;40530;53.062;6.078;2022-10-23T10:26:49;11.23;;;5.57;;
53971;SDS011;40530;53.062;6.078;2022-10-23T10:50:30;16.80;;;4.70;;
53971;SDS011;40530;53.062;6.078;2022-10-23T10:55:28;13.00;;;4.97;;
53971;SDS011;40530;53.062;6.078;2022-10-23T10:58:02;17.30;;;10.90;;
53971;SDS011;40530;53.062;6.078;2022-10-23T11:00:30;16.52;;;9.68;;
53971;SDS011;40530;53.062;6.078;2022-10-23T11:05:43;14.10;;;4.30;;
53971;SDS011;40530;53.062;6.078;2022-10-23T11:10:40;8.18;;;4.13;;
53971;SDS011;40530;53.062;6.078;2022-10-23T11:15:45;14.05;;;5.85;;
53971;SDS011;40530;53.062;6.078;2022-10-23T11:18:13;8.55;;;4.82;;
53971;SDS011;40530;53.062;6.078;2022-10-23T11:20:54;47.42;;;21.42;;
53971;SDS011;40530;53.062;6.078;2022-10-23T11:31:21;25.85;;;16.85;;
53971;SDS011;40530;53.062;6.078;2022-10-23T11:36:19;10.55;;;4.57;;
53971;SDS011;40530;53.062;6.078;2022-10-23T11:39:04;15.55;;;5.80;;
53971;SDS011;40530;53.062;6.078;2022-10-23T11:41:31;8.57;;;4.28;;
53971;SDS011;40530;53.062;6.078;2022-10-23T11:43:59;11.80;;;4.55;;
53971;SDS011;40530;53.062;6.078;2022-10-23T11:46:34;12.50;;;3.58;;
53971;SDS011;40530;53.062;6.078;2022-10-23T11:49:02;14.02;;;4.28;;
53971;SDS011;40530;53.062;6.078;2022-10-23T11:51:31;11.18;;;4.28;;
53971;SDS011;40530;53.062;6.078;2022-10-23T11:54:17;8.70;;;3.40;;
53971;SDS011;40530;53.062;6.078;2022-10-23T11:57:28;8.07;;;3.33;;
53971;SDS011;40530;53.062;6.078;2022-10-23T12:04:45;12.00;;;3.78;;
53971;SDS011;40530;53.062;6.078;2022-10-23T12:12:34;9.45;;;3.33;;
53971;SDS011;40530;53.062;6.078;2022-10-23T12:15:16;8.82;;;3.40;;
53971;SDS011;40530;53.062;6.078;2022-10-23T12:17:43;6.53;;;3.00;;
53971;SDS011;40530;53.062;6.078;2022-10-23T12:27:59;10.43;;;3.47;;
53971;SDS011;40530;53.062;6.078;2022-10-23T12:30:31;6.40;;;3.05;;
53971;SDS011;40530;53.062;6.078;2022-10-23T12:35:45;11.30;;;3.47;;
53971;SDS011;40530;53.062;6.078;2022-10-23T12:38:15;15.88;;;4.90;;
53971;SDS011;40530;53.062;6.078;2022-10-23T12:40:43;12.63;;;3.40;;
53971;SDS011;40530;53.062;6.078;2022-10-23T12:43:19;21.75;;;9.07;;
53971;SDS011;40530;53.062;6.078;2022-10-23T12:45:46;18.30;;;5.85;;
53971;SDS011;40530;53.062;6.078;2022-10-23T12:48:19;10.25;;;5.15;;
53971;SDS011;40530;53.062;6.078;2022-10-23T12:50:49;12.10;;;3.25;;
53971;SDS011;40530;53.062;6.078;2022-10-23T12:53:16;6.07;;;3.30;;
53971;SDS011;40530;53.062;6.078;2022-10-23T12:58:21;63.40;;;34.42;;
53971;SDS011;40530;53.062;6.078;2022-10-23T13:00:49;81.53;;;45.72;;
53971;SDS011;40530;53.062;6.078;2022-10-23T13:03:15;45.33;;;25.63;;
53971;SDS011;40530;53.062;6.078;2022-10-23T13:05:41;47.55;;;29.20;;
53971;SDS011;40530;53.062;6.078;2022-10-23T13:08:07;17.73;;;9.40;;
53971;SDS011;40530;53.062;6.078;2022-10-23T13:10:34;91.18;;;55.63;;
53971;SDS011;40530;53.062;6.078;2022-10-23T13:13:04;34.08;;;20.10;;
53971;SDS011;40530;53.062;6.078;2022-10-23T13:15:42;45.13;;;26.42;;
53971;SDS011;40530;53.062;6.078;2022-10-23T13:18:09;46.47;;;28.15;;
53971;SDS011;40530;53.062;6.078;2022-10-23T13:20:36;37.20;;;29.52;;
53971;SDS011;40530;53.062;6.078;2022-10-23T13:25:33;8.82;;;3.28;;
53971;SDS011;40530;53.062;6.078;2022-10-23T13:30:41;10.65;;;2.72;;
53971;SDS011;40530;53.062;6.078;2022-10-23T13:35:35;9.18;;;3.13;;
53971;SDS011;40530;53.062;6.078;2022-10-23T13:38:08;12.85;;;4.38;;
53971;SDS011;40530;53.062;6.078;2022-10-23T13:40:34;9.45;;;2.78;;
53971;SDS011;40530;53.062;6.078;2022-10-23T13:43:00;9.00;;;2.90;;
53971;SDS011;40530;53.062;6.078;2022-10-23T13:45:27;12.25;;;4.32;;
53971;SDS011;40530;53.062;6.078;2022-10-23T13:47:53;9.05;;;3.20;;
53971;SDS011;40530;53.062;6.078;2022-10-23T13:50:19;18.00;;;5.10;;
53971;SDS011;40530;53.062;6.078;2022-10-23T13:52:45;9.02;;;3.88;;
53971;SDS011;40530;53.062;6.078;2022-10-23T13:55:21;9.63;;;5.40;;
53971;SDS011;40530;53.062;6.078;2022-10-23T13:57:48;9.45;;;4.65;;
53971;SDS011;40530;53.062;6.078;2022-10-23T14:00:14;11.50;;;4.22;;
53971;SDS011;40530;53.062;6.078;2022-10-23T14:02:41;7.78;;;2.60;;
53971;SDS011;40530;53.062;6.078;2022-10-23T14:05:07;14.45;;;4.05;;
53971;SDS011;40530;53.062;6.078;2022-10-23T14:07:33;11.48;;;3.30;;
53971;SDS011;40530;53.062;6.078;2022-10-23T14:09:59;8.00;;;2.63;;
53971;SDS011;40530;53.062;6.078;2022-10-23T14:12:25;10.73;;;2.58;;
53971;SDS011;40530;53.062;6.078;2022-10-23T14:14:51;4.60;;;2.65;;
53971;SDS011;40530;53.062;6.078;2022-10-23T14:17:18;10.18;;;3.15;;
53971;SDS011;40530;53.062;6.078;2022-10-23T14:19:45;6.43;;;2.63;;
53971;SDS011;40530;53.062;6.078;2022-10-23T14:22:11;51.03;;;32.10;;
53971;SDS011;40530;53.062;6.078;2022-10-23T14:24:37;17.23;;;8.75;;
53971;SDS011;40530;53.062;6.078;2022-10-23T14:27:03;12.32;;;6.53;;
53971;SDS011;40530;53.062;6.078;2022-10-23T14:29:29;9.98;;;4.00;;
53971;SDS011;40530;53.062;6.078;2022-10-23T14:31:55;13.73;;;3.83;;
53971;SDS011;40530;53.062;6.078;2022-10-23T14:34:22;5.75;;;2.50;;
53971;SDS011;40530;53.062;6.078;2022-10-23T14:36:48;6.90;;;3.10;;
53971;SDS011;40530;53.062;6.078;2022-10-23T14:39:14;10.38;;;3.00;;
53971;SDS011;40530;53.062;6.078;2022-10-23T14:41:40;10.25;;;4.00;;
53971;SDS011;40530;53.062;6.078;2022-10-23T14:44:06;11.40;;;3.60;;
53971;SDS011;40530;53.062;6.078;2022-10-23T14:46:32;14.13;;;3.85;;
53971;SDS011;40530;53.062;6.078;2022-10-23T14:48:59;18.90;;;7.65;;
53971;SDS011;40530;53.062;6.078;2022-10-23T14:51:27;9.32;;;4.70;;
53971;SDS011;40530;53.062;6.078;2022-10-23T14:54:00;22.33;;;13.05;;
53971;SDS011;40530;53.062;6.078;2022-10-23T14:56:27;19.58;;;10.52;;
53971;SDS011;40530;53.062;6.078;2022-10-23T14:58:54;13.98;;;6.20;;
53971;SDS011;40530;53.062;6.078;2022-10-23T15:01:26;11.10;;;4.32;;
53971;SDS011;40530;53.062;6.078;2022-10-23T15:03:52;16.30;;;4.90;;
53971;SDS011;40530;53.062;6.078;2022-10-23T15:06:19;15.27;;;7.95;;
53971;SDS011;40530;53.062;6.078;2022-10-23T15:08:48;20.27;;;10.73;;
53971;SDS011;40530;53.062;6.078;2022-10-23T15:11:14;9.07;;;3.90;;
53971;SDS011;40530;53.062;6.078;2022-10-23T15:13:40;6.38;;;2.88;;
53971;SDS011;40530;53.062;6.078;2022-10-23T15:16:07;10.05;;;2.78;;
53971;SDS011;40530;53.062;6.078;2022-10-23T15:18:33;6.82;;;2.85;;
53971;SDS011;40530;53.062;6.078;2022-10-23T15:21:03;14.90;;;3.95;;
53971;SDS011;40530;53.062;6.078;2022-10-23T15:23:30;12.52;;;3.97;;
53971;SDS011;40530;53.062;6.078;2022-10-23T15:26:02;12.52;;;4.05;;
53971;SDS011;40530;53.062;6.078;2022-10-23T15:28:29;13.13;;;6.32;;
53971;SDS011;40530;53.062;6.078;2022-10-23T15:30:55;16.55;;;4.80;;
53971;SDS011;40530;53.062;6.078;2022-10-23T15:33:22;14.93;;;3.58;;
53971;SDS011;40530;53.062;6.078;2022-10-23T15:35:48;9.25;;;3.45;;
53971;SDS011;40530;53.062;6.078;2022-10-23T15:38:14;15.35;;;5.85;;
53971;SDS011;40530;53.062;6.078;2022-10-23T15:40:40;7.70;;;3.65;;
53971;SDS011;40530;53.062;6.078;2022-10-23T15:43:07;7.68;;;3.15;;
53971;SDS011;40530;53.062;6.078;2022-10-23T15:45:33;7.32;;;3.45;;
53971;SDS011;40530;53.062;6.078;2022-10-23T15:47:59;8.02;;;2.47;;
53971;SDS011;40530;53.062;6.078;2022-10-23T15:50:25;7.88;;;2.25;;
53971;SDS011;40530;53.062;6.078;2022-10-23T15:52:51;6.65;;;3.20;;
53971;SDS011;40530;53.062;6.078;2022-10-23T15:55:18;8.60;;;4.53;;
53971;SDS011;40530;53.062;6.078;2022-10-23T15:57:44;13.20;;;3.22;;
53971;SDS011;40530;53.062;6.078;2022-10-23T16:00:11;10.90;;;3.67;;
53971;SDS011;40530;53.062;6.078;2022-10-23T16:02:37;13.75;;;3.72;;
53971;SDS011;40530;53.062;6.078;2022-10-23T16:05:04;15.85;;;2.42;;
53971;SDS011;40530;53.062;6.078;2022-10-23T16:07:30;7.35;;;2.28;;
53971;SDS011;40530;53.062;6.078;2022-10-23T16:09:56;5.40;;;2.30;;
53971;SDS011;40530;53.062;6.078;2022-10-23T16:12:22;11.35;;;2.72;;
53971;SDS011;40530;53.062;6.078;2022-10-23T16:14:48;5.22;;;2.75;;
53971;SDS011;40530;53.062;6.078;2022-10-23T16:17:15;10.80;;;3.63;;
53971;SDS011;40530;53.062;6.078;2022-10-23T16:19:43;8.95;;;2.40;;
53971;SDS011;40530;53.062;6.078;2022-10-23T16:22:09;7.05;;;2.97;;
53971;SDS011;40530;53.062;6.078;2022-10-23T16:24:35;9.05;;;2.25;;
53971;SDS011;40530;53.062;6.078;2022-10-23T16:27:01;5.05;;;1.92;;
53971;SDS011;40530;53.062;6.078;2022-10-23T16:29:28;7.10;;;3.08;;
53971;SDS011;40530;53.062;6.078;2022-10-23T16:31:54;11.32;;;2.53;;
53971;SDS011;40530;53.062;6.078;2022-10-23T16:34:20;8.30;;;2.00;;